Time;durP1;ratioP1;P1;durP2;ratioP2;P2;SDS_P1;SDS_P2;PMS_P1;PMS_P2;Temp;Humidity;BMP_temperature;BMP_pressure;BME280_temperature;BME280_humidity;BME280_pressure;Samples;Min_cycle;Max_cycle;Signal;HPM_P1;HPM_P2
2022/08/06 00:00:41;;;;;;;1.55;1.25;;;16.50;79.40;;;;;;5070756;28;20086;-50
2022/08/06 00:03:07;;;;;;;1.38;1.02;;;16.50;81.00;;;;;;5049846;28;20041;-48
2022/08/06 00:05:33;;;;;;;1.55;1.23;;;16.40;83.30;;;;;;5070720;28;20035;-49
2022/08/06 00:07:58;;;;;;;2.80;1.33;;;16.40;81.90;;;;;;5060464;28;20086;-47
2022/08/06 00:10:25;;;;;;;1.88;1.25;;;16.40;83.50;;;;;;5051879;28;20094;-47
2022/08/06 00:12:51;;;;;;;2.50;1.30;;;16.30;82.80;;;;;;5068697;28;20032;-49
2022/08/06 00:15:18;;;;;;;3.25;1.20;;;16.30;84.70;;;;;;5045724;28;20548;-48
2022/08/06 00:17:44;;;;;;;2.03;1.20;;;16.30;84.10;;;;;;5068626;28;20500;-48
2022/08/06 00:20:12;;;;;;;2.03;1.10;;;16.20;83.90;;;;;;5051460;28;20032;-47
2022/08/06 00:22:37;;;;;;;1.80;1.38;;;16.20;82.90;;;;;;5068670;28;20128;-48
2022/08/06 00:25:04;;;;;;;2.08;1.10;;;16.20;82.20;;;;;;5070997;28;20537;-50
2022/08/06 00:27:29;;;;;;;1.25;1.15;;;16.10;88.70;;;;;;5055341;28;20404;-47
2022/08/06 00:29:56;;;;;;;3.65;1.10;;;16.10;85.20;;;;;;5070908;28;20029;-47
2022/08/06 00:32:21;;;;;;;1.23;1.00;;;16.10;84.50;;;;;;5053960;28;20377;-49
2022/08/06 00:34:46;;;;;;;3.83;1.10;;;16.00;85.60;;;;;;5070775;28;20077;-49
2022/08/06 00:37:12;;;;;;;1.70;1.30;;;15.90;84.10;;;;;;5051678;28;20036;-48
2022/08/06 00:39:37;;;;;;;1.25;0.95;;;15.90;82.90;;;;;;5070672;28;20029;-53
2022/08/06 00:42:03;;;;;;;1.33;0.95;;;15.80;82.90;;;;;;5051064;28;20037;-50
2022/08/06 00:44:29;;;;;;;1.75;0.82;;;15.80;81.40;;;;;;5069350;28;20027;-47
2022/08/06 00:46:54;;;;;;;2.35;1.13;;;15.80;80.00;;;;;;5049775;28;20029;-51
2022/08/06 00:49:20;;;;;;;2.10;0.75;;;15.70;80.80;;;;;;5067910;28;20444;-47
2022/08/06 00:51:45;;;;;;;1.30;1.00;;;15.70;80.80;;;;;;5050621;28;20045;-49
2022/08/06 00:54:11;;;;;;;1.58;0.82;;;15.70;80.90;;;;;;5048638;28;20436;-48
2022/08/06 00:56:36;;;;;;;2.10;0.77;;;15.60;81.50;;;;;;5068322;28;20037;-48
2022/08/06 00:59:04;;;;;;;2.90;1.00;;;15.60;80.80;;;;;;5049122;28;20033;-48
2022/08/06 01:01:31;;;;;;;1.10;0.80;;;15.60;80.90;;;;;;5069812;28;20032;-48
2022/08/06 01:03:56;;;;;;;3.75;1.30;;;15.50;81.90;;;;;;5048796;28;20107;-47
2022/08/06 01:06:22;;;;;;;3.53;1.17;;;15.50;86.40;;;;;;5069505;28;20459;-47
2022/08/06 01:08:48;;;;;;;1.63;1.00;;;15.50;83.80;;;;;;5048899;28;20033;-50
2022/08/06 01:11:13;;;;;;;0.68;0.65;;;15.40;83.20;;;;;;5069491;28;20108;-60
2022/08/06 01:13:39;;;;;;;1.95;0.80;;;15.30;84.60;;;;;;5048519;28;20086;-60
2022/08/06 01:16:27;;;;;;;1.27;0.63;;;15.30;83.10;;;;;;5070041;28;20103;-60
2022/08/06 01:19:06;;;;;;;1.67;0.85;;;15.30;84.20;;;;;;5044274;28;20028;-60
2022/08/06 01:21:50;;;;;;;3.65;0.90;;;15.20;84.40;;;;;;5030154;28;20044;-60
2022/08/06 01:24:44;;;;;;;1.38;0.85;;;15.20;84.60;;;;;;5047257;28;20092;-60
2022/08/06 01:27:28;;;;;;;1.92;0.70;;;15.10;84.50;;;;;;5031387;28;20075;-60
2022/08/06 01:30:00;;;;;;;1.67;0.80;;;15.10;84.60;;;;;;5069905;28;20390;-60
2022/08/06 01:32:31;;;;;;;1.27;0.80;;;15.00;85.40;;;;;;5035530;28;20035;-60
2022/08/06 01:35:08;;;;;;;3.42;0.80;;;15.00;85.70;;;;;;5069872;28;20051;-60
2022/08/06 01:37:49;;;;;;;2.97;0.95;;;14.90;84.30;;;;;;5037239;28;20028;-60
2022/08/06 01:40:22;;;;;;;2.28;0.63;;;14.90;86.70;;;;;;5069783;28;20032;-60
2022/08/06 01:42:49;;;;;;;1.85;0.77;;;14.90;85.60;;;;;;5040691;28;20113;-60
2022/08/06 01:45:18;;;;;;;0.60;0.60;;;14.80;85.60;;;;;;5070099;28;20504;-60
2022/08/06 01:47:47;;;;;;;1.80;0.60;;;14.80;86.30;;;;;;5053785;28;20112;-60
2022/08/06 01:50:17;;;;;;;1.40;0.68;;;14.70;85.20;;;;;;5064087;28;20041;-60
2022/08/06 01:52:43;;;;;;;0.93;0.65;;;14.70;86.80;;;;;;5071957;28;20035;-60
2022/08/06 01:55:14;;;;;;;1.85;0.60;;;14.60;87.10;;;;;;5074149;28;20112;-60
2022/08/06 01:57:50;;;;;;;0.82;0.40;;;14.60;86.40;;;;;;5057064;28;20021;-60
2022/08/06 02:00:17;;;;;;;0.52;0.50;;;14.60;88.70;;;;;;5074012;28;20066;-60
2022/08/06 02:02:44;;;;;;;0.60;0.60;;;14.60;87.10;;;;;;5057150;28;20043;-60
2022/08/06 02:05:13;;;;;;;0.95;0.50;;;14.50;87.50;;;;;;5073691;28;20056;-60
2022/08/06 02:07:41;;;;;;;0.65;0.50;;;14.50;87.10;;;;;;5056236;28;20032;-60
2022/08/06 02:10:09;;;;;;;1.25;0.60;;;14.50;86.00;;;;;;5073549;28;20492;-60
2022/08/06 02:12:36;;;;;;;1.00;0.80;;;14.50;87.50;;;;;;5055813;28;20067;-60
2022/08/06 02:15:17;;;;;;;0.63;0.40;;;14.50;87.50;;;;;;5070304;28;20031;-60
2022/08/06 02:17:48;;;;;;;0.88;0.82;;;14.40;87.50;;;;;;5041196;28;20104;-60
2022/08/06 02:20:17;;;;;;;1.17;0.63;;;14.40;86.00;;;;;;5073543;28;20020;-60
2022/08/06 02:22:45;;;;;;;2.75;0.63;;;14.30;87.10;;;;;;5055949;28;20033;-60
2022/08/06 02:25:13;;;;;;;0.65;0.50;;;14.30;86.80;;;;;;5073307;28;20024;-60
2022/08/06 02:27:45;;;;;;;2.45;0.65;;;14.30;85.40;;;;;;5055369;28;20560;-60
2022/08/06 02:30:12;;;;;;;1.73;0.57;;;14.30;85.60;;;;;;5073167;28;20081;-60
2022/08/06 02:32:37;;;;;;;1.30;0.65;;;14.30;85.00;;;;;;5055173;28;20036;-60
2022/08/06 02:35:03;;;;;;;0.70;0.60;;;14.20;86.60;;;;;;5073201;28;20025;-60
2022/08/06 02:37:53;;;;;;;0.50;0.38;;;14.20;87.10;;;;;;5053888;28;20056;-60
2022/08/06 02:40:27;;;;;;;1.02;0.60;;;14.10;87.40;;;;;;5072762;28;20120;-60
2022/08/06 02:43:05;;;;;;;2.40;0.57;;;14.10;87.40;;;;;;5041807;28;20036;-60
2022/08/06 02:45:39;;;;;;;0.50;0.40;;;14.10;87.20;;;;;;5073135;28;20069;-60
2022/08/06 02:48:12;;;;;;;1.15;0.60;;;14.00;88.00;;;;;;5043522;28;20032;-60
2022/08/06 02:50:43;;;;;;;0.80;0.50;;;14.00;89.10;;;;;;5059565;28;20045;-60
2022/08/06 02:53:13;;;;;;;0.30;0.30;;;14.00;87.20;;;;;;5045516;28;20119;-60
2022/08/06 02:55:42;;;;;;;1.08;0.47;;;13.90;86.50;;;;;;5072753;28;20464;-60
2022/08/06 02:58:16;;;;;;;0.35;0.35;;;13.90;86.70;;;;;;5057717;28;20047;-61
2022/08/06 03:00:45;;;;;;;1.63;0.70;;;13.90;87.20;;;;;;5071696;28;20027;-60
2022/08/06 03:03:13;;;;;;;3.88;0.60;;;13.90;87.50;;;;;;5058033;28;20544;-61
2022/08/06 03:05:43;;;;;;;0.43;0.43;;;13.80;87.00;;;;;;5072534;28;20473;-60
2022/08/06 03:08:13;;;;;;;0.98;0.40;;;13.80;86.60;;;;;;5057314;28;20084;-60
2022/08/06 03:10:40;;;;;;;0.45;0.45;;;13.80;87.00;;;;;;5072408;28;20081;-61
2022/08/06 03:13:06;;;;;;;1.40;0.60;;;13.80;88.60;;;;;;5052820;28;20033;-59
2022/08/06 03:15:33;;;;;;;0.63;0.40;;;13.70;87.20;;;;;;5072506;28;20020;-60
2022/08/06 03:18:01;;;;;;;0.90;0.40;;;13.70;86.60;;;;;;5055899;28;20519;-60
2022/08/06 03:20:28;;;;;;;0.98;0.50;;;13.70;86.10;;;;;;5072345;28;20115;-60
2022/08/06 03:22:58;;;;;;;0.90;0.60;;;13.70;86.20;;;;;;5054931;28;20043;-60
2022/08/06 03:25:26;;;;;;;0.60;0.43;;;13.70;86.40;;;;;;5072278;28;20036;-60
2022/08/06 03:27:53;;;;;;;1.13;0.50;;;13.60;87.20;;;;;;5054470;28;20058;-60
2022/08/06 03:30:20;;;;;;;0.60;0.60;;;13.70;87.00;;;;;;5072094;28;20100;-60
2022/08/06 03:32:47;;;;;;;2.60;0.75;;;13.60;85.50;;;;;;5052124;28;20060;-60
2022/08/06 03:35:14;;;;;;;1.48;0.57;;;13.60;85.50;;;;;;5072098;28;20048;-60
2022/08/06 03:37:42;;;;;;;0.68;0.40;;;13.60;86.00;;;;;;5052461;28;20496;-60
2022/08/06 03:40:10;;;;;;;0.40;0.40;;;13.60;86.70;;;;;;5071886;28;20024;-60
2022/08/06 03:42:36;;;;;;;0.43;0.43;;;13.60;86.30;;;;;;5051415;28;20032;-60
2022/08/06 03:45:03;;;;;;;0.40;0.40;;;13.60;85.80;;;;;;5071790;28;20028;-60
2022/08/06 03:47:32;;;;;;;0.57;0.35;;;13.60;85.90;;;;;;5050480;28;20082;-60
2022/08/06 03:50:09;;;;;;;0.45;0.45;;;13.60;86.20;;;;;;5063874;28;20139;-60
2022/08/06 03:52:39;;;;;;;1.13;0.68;;;13.50;86.50;;;;;;5031841;28;20037;-60
2022/08/06 03:55:08;;;;;;;0.50;0.50;;;13.50;87.00;;;;;;5071954;28;20036;-60
2022/08/06 03:57:43;;;;;;;2.40;0.70;;;13.50;86.30;;;;;;5050435;28;20028;-60
2022/08/06 04:00:10;;;;;;;0.50;0.50;;;13.50;86.50;;;;;;5071590;28;20116;-60
2022/08/06 04:02:40;;;;;;;0.50;0.32;;;13.60;86.60;;;;;;5050815;28;20162;-60
2022/08/06 04:05:07;;;;;;;0.40;0.40;;;13.50;86.80;;;;;;5071521;28;20028;-60
2022/08/06 04:07:33;;;;;;;0.40;0.40;;;13.50;87.20;;;;;;5049965;28;20078;-60
2022/08/06 04:10:00;;;;;;;0.55;0.40;;;13.50;87.20;;;;;;5070049;28;20017;-60
2022/08/06 04:12:28;;;;;;;1.17;0.55;;;13.50;86.70;;;;;;5051358;28;20025;-60
2022/08/06 04:14:54;;;;;;;0.40;0.40;;;13.50;86.50;;;;;;5043192;28;20420;-59
2022/08/06 04:17:21;;;;;;;2.05;0.90;;;13.60;86.90;;;;;;5070385;28;20025;-60
2022/08/06 04:19:48;;;;;;;1.48;0.50;;;13.60;87.80;;;;;;5049664;28;20520;-60
2022/08/06 04:22:14;;;;;;;0.50;0.50;;;13.60;88.20;;;;;;5070452;28;20040;-60
2022/08/06 04:24:40;;;;;;;1.35;0.63;;;13.60;88.50;;;;;;5049861;28;20374;-61
2022/08/06 04:27:06;;;;;;;3.53;0.60;;;13.60;88.70;;;;;;5070129;28;20146;-60
2022/08/06 04:29:35;;;;;;;0.75;0.60;;;13.70;89.30;;;;;;5049509;28;20071;-60
2022/08/06 04:32:01;;;;;;;0.85;0.65;;;13.70;88.40;;;;;;5070799;28;20493;-60
2022/08/06 04:34:28;;;;;;;1.05;0.70;;;13.70;88.30;;;;;;5047994;28;20389;-60
2022/08/06 04:36:55;;;;;;;0.88;0.73;;;13.80;88.30;;;;;;5068988;28;20107;-60
2022/08/06 04:39:22;;;;;;;1.65;0.65;;;13.90;88.10;;;;;;5049493;28;20021;-60
2022/08/06 04:41:48;;;;;;;0.55;0.55;;;13.90;87.50;;;;;;5070181;28;20050;-60
2022/08/06 04:44:14;;;;;;;1.85;0.65;;;14.00;87.70;;;;;;5049306;28;20087;-60
2022/08/06 04:46:41;;;;;;;0.65;0.65;;;14.10;87.20;;;;;;5069921;28;20516;-60
2022/08/06 04:49:07;;;;;;;0.50;0.40;;;14.10;87.30;;;;;;5049108;28;20033;-60
2022/08/06 04:51:34;;;;;;;0.43;0.32;;;14.20;86.90;;;;;;5069313;28;20501;-60
2022/08/06 04:54:03;;;;;;;0.85;0.85;;;14.30;86.50;;;;;;5060006;28;20025;-60
2022/08/06 04:56:28;;;;;;;0.93;0.75;;;14.30;85.60;;;;;;5050623;28;20029;-60
2022/08/06 04:58:54;;;;;;;1.52;0.63;;;14.50;84.90;;;;;;5066275;28;20017;-60
2022/08/06 05:01:19;;;;;;;1.00;0.70;;;14.60;84.30;;;;;;5050883;28;20036;-61
2022/08/06 05:03:45;;;;;;;1.25;0.60;;;14.70;83.70;;;;;;5067518;28;20031;-61
2022/08/06 05:06:42;;;;;;;1.88;0.75;;;14.80;82.80;;;;;;5050827;28;20029;-60
2022/08/06 05:09:13;;;;;;;1.67;0.50;;;14.90;82.30;;;;;;5049965;28;20071;-60
2022/08/06 05:11:47;;;;;;;1.23;0.60;;;15.00;81.00;;;;;;5030463;28;20033;-60
2022/08/06 05:14:20;;;;;;;1.13;0.50;;;15.10;80.30;;;;;;5044650;28;20039;-60
2022/08/06 05:16:48;;;;;;;1.10;0.55;;;15.30;79.20;;;;;;5030324;28;20037;-60
2022/08/06 05:19:19;;;;;;;1.33;0.40;;;15.30;78.50;;;;;;5055284;28;20492;-60
2022/08/06 05:21:47;;;;;;;3.90;0.80;;;15.40;77.80;;;;;;5030245;28;20496;-60
2022/08/06 05:24:13;;;;;;;0.95;0.45;;;15.50;77.30;;;;;;5055015;28;20065;-60
2022/08/06 05:26:39;;;;;;;0.82;0.47;;;15.80;75.60;;;;;;5069374;28;20028;-60
2022/08/06 05:29:04;;;;;;;2.60;0.60;;;16.00;74.50;;;;;;5059269;28;20071;-60
2022/08/06 05:31:36;;;;;;;1.38;0.70;;;16.50;72.30;;;;;;5050447;28;20029;-60
2022/08/06 05:34:08;;;;;;;3.05;0.45;;;16.90;68.80;;;;;;5067932;28;20492;-60
2022/08/06 05:36:34;;;;;;;0.95;0.75;;;17.40;66.30;;;;;;5049948;28;20075;-60
2022/08/06 05:38:59;;;;;;;1.15;0.55;;;18.20;62.20;;;;;;5067190;28;20032;-60
2022/08/06 05:41:25;;;;;;;2.50;0.60;;;18.70;58.90;;;;;;5050240;28;20102;-60
2022/08/06 05:43:51;;;;;;;3.53;0.38;;;18.70;56.00;;;;;;5067223;28;20032;-60
2022/08/06 05:46:19;;;;;;;0.57;0.50;;;18.80;56.50;;;;;;5050349;28;20439;-61
2022/08/06 05:49:12;;;;;;;0.98;0.50;;;19.40;55.30;;;;;;5067568;28;20016;-61
2022/08/06 05:51:45;;;;;;;0.65;0.50;;;20.20;41.30;;;;;;5031245;28;20127;-61
2022/08/06 05:54:19;;;;;;;0.45;0.45;;;20.10;46.30;;;;;;5067857;28;20029;-61
2022/08/06 05:56:47;;;;;;;0.63;0.30;;;20.50;46.50;;;;;;5049847;28;20127;-61
2022/08/06 05:59:19;;;;;;;1.77;0.30;;;21.20;45.80;;;;;;5067372;28;20242;-61
2022/08/06 06:01:45;;;;;;;0.60;0.38;;;21.30;43.20;;;;;;5030064;28;20021;-61
2022/08/06 06:04:12;;;;;;;0.32;0.32;;;21.30;43.30;;;;;;5066719;28;20071;-61
2022/08/06 06:06:38;;;;;;;0.60;0.55;;;21.40;41.10;;;;;;5049945;28;20036;-61
2022/08/06 06:09:05;;;;;;;1.65;0.50;;;21.60;38.20;;;;;;5067034;28;20036;-60
2022/08/06 06:11:31;;;;;;;0.47;0.30;;;21.80;38.50;;;;;;5049831;28;20060;-61
2022/08/06 06:13:56;;;;;;;1.83;0.50;;;21.90;38.80;;;;;;5051817;28;20305;-61
2022/08/06 06:16:43;;;;;;;1.55;0.60;;;21.90;37.80;;;;;;5068751;28;20040;-61
2022/08/06 06:19:23;;;;;;;1.13;0.52;;;22.90;28.50;;;;;;5047407;28;20021;-61
2022/08/06 06:22:05;;;;;;;0.40;0.32;;;24.70;28.90;;;;;;5029581;28;20086;-61
2022/08/06 06:25:00;;;;;;;8.20;0.85;;;25.40;21.30;;;;;;5053302;28;20397;-61
2022/08/06 06:27:49;;;;;;;1.23;0.50;;;26.20;23.20;;;;;;5059313;28;20488;-61
2022/08/06 06:30:50;;;;;;;0.30;0.30;;;27.80;13.50;;;;;;5046460;28;20106;-59
2022/08/06 06:33:19;;;;;;;1.38;0.40;;;28.90;10.70;;;;;;5049630;28;20044;-59
2022/08/06 06:35:57;;;;;;;1.80;0.50;;;30.00;16.50;;;;;;5072837;28;20499;-59
2022/08/06 06:38:36;;;;;;;0.45;0.43;;;31.10;9.20;;;;;;5054262;28;20032;-59
2022/08/06 06:41:23;;;;;;;2.55;0.60;;;31.80;9.20;;;;;;5073214;28;20457;-59
2022/08/06 06:44:00;;;;;;;1.08;0.40;;;32.30;5.40;;;;;;5043837;28;20530;-59
2022/08/06 06:46:34;;;;;;;0.68;0.35;;;32.80;5.00;;;;;;5073001;28;20103;-59
2022/08/06 06:49:06;;;;;;;2.25;0.40;;;33.60;2.90;;;;;;5046534;28;20029;-59
2022/08/06 06:51:43;;;;;;;0.77;0.20;;;33.90;4.60;;;;;;5032958;28;20091;-59
2022/08/06 06:54:24;;;;;;;1.00;0.35;;;34.30;4.10;;;;;;5048915;28;20488;-59
2022/08/06 06:56:52;;;;;;;1.50;0.40;;;34.80;1.00;;;;;;5032875;28;20116;-59
2022/08/06 06:59:23;;;;;;;0.77;0.30;;;35.20;2.70;;;;;;5070267;28;20099;-59
2022/08/06 07:01:51;;;;;;;1.20;0.35;;;35.50;1.40;;;;;;5032827;28;20448;-59
2022/08/06 07:04:18;;;;;;;0.95;0.47;;;34.90;1.00;;;;;;5070290;28;20045;-60
2022/08/06 07:06:46;;;;;;;1.13;0.43;;;34.90;1.00;;;;;;5052893;28;20025;-59
2022/08/06 07:09:18;;;;;;;0.95;0.20;;;35.10;1.00;;;;;;5070253;28;20036;-59
2022/08/06 07:11:44;;;;;;;0.20;0.20;;;35.50;1.00;;;;;;5052661;28;20025;-59
2022/08/06 07:14:10;;;;;;;0.40;0.30;;;35.80;1.00;;;;;;5056153;28;20032;-59
2022/08/06 07:16:37;;;;;;;0.68;0.40;;;35.80;1.00;;;;;;5071615;28;20033;-59
2022/08/06 07:19:05;;;;;;;9.40;0.98;;;35.50;1.00;;;;;;5058354;28;20177;-59
2022/08/06 07:21:32;;;;;;;1.50;0.35;;;34.90;1.00;;;;;;5072382;28;20411;-59
2022/08/06 07:23:58;;;;;;;1.67;0.70;;;34.90;1.00;;;;;;5057194;28;20499;-59
2022/08/06 07:26:23;;;;;;;2.92;0.80;;;34.30;1.00;;;;;;5072306;28;20024;-59
2022/08/06 07:28:51;;;;;;;0.73;0.38;;;34.50;1.00;;;;;;5056017;28;20028;-59
2022/08/06 07:31:18;;;;;;;1.02;0.30;;;35.10;1.00;;;;;;5072109;28;20023;-59
2022/08/06 07:33:45;;;;;;;1.02;0.60;;;35.60;1.00;;;;;;5055255;28;20020;-59
2022/08/06 07:36:17;;;;;;;0.30;0.20;;;36.00;1.00;;;;;;5070857;28;20055;-59
2022/08/06 07:38:44;;;;;;;1.95;0.50;;;35.80;1.00;;;;;;5038354;28;20028;-59
2022/08/06 07:41:10;;;;;;;0.93;0.30;;;36.10;1.00;;;;;;5071823;28;20396;-59
2022/08/06 07:43:48;;;;;;;1.92;0.30;;;36.40;1.00;;;;;;5053369;28;20041;-59
2022/08/06 07:46:19;;;;;;;1.00;0.40;;;35.40;1.00;;;;;;5071425;28;20469;-60
2022/08/06 07:48:53;;;;;;;0.88;0.30;;;36.00;1.00;;;;;;5038227;28;20028;-59
2022/08/06 07:51:22;;;;;;;1.77;0.60;;;36.40;1.00;;;;;;5071980;28;20028;-59
2022/08/06 07:53:48;;;;;;;1.83;0.30;;;37.10;1.00;;;;;;5054168;28;20040;-59
2022/08/06 07:56:14;;;;;;;1.33;0.40;;;37.80;1.00;;;;;;5071670;28;20037;-59
2022/08/06 07:58:40;;;;;;;0.30;0.20;;;36.50;1.00;;;;;;5052114;28;20032;-59
2022/08/06 08:01:06;;;;;;;0.75;0.32;;;34.10;1.00;;;;;;5071676;28;20048;-59
2022/08/06 08:06:22;;;;;;;2.00;0.40;;;32.40;1.00;;;;;;5071998;28;20039;-59
2022/08/06 08:09:10;;;;;;;0.35;0.30;;;33.30;1.00;;;;;;5053498;28;20024;-59
2022/08/06 08:11:43;;;;;;;0.50;0.40;;;33.70;1.00;;;;;;5071445;28;20028;-60
2022/08/06 08:14:10;;;;;;;0.93;0.43;;;33.10;1.00;;;;;;5037070;28;20036;-59
2022/08/06 08:16:37;;;;;;;0.60;0.40;;;31.90;1.00;;;;;;5070779;28;20077;-59
2022/08/06 08:19:37;;;;;;;0.47;0.20;;;31.30;1.00;;;;;;5055359;28;20021;-59
2022/08/06 08:22:13;;;;;;;0.52;0.15;;;30.80;1.00;;;;;;5071176;28;20103;-59
2022/08/06 08:24:39;;;;;;;0.60;0.30;;;31.40;1.00;;;;;;5050379;28;20122;-59
2022/08/06 08:27:10;;;;;;;1.38;0.22;;;31.40;1.00;;;;;;5051561;28;20052;-59
2022/08/06 08:29:39;;;;;;;0.20;0.20;;;31.30;1.00;;;;;;5049218;28;20071;-60
2022/08/06 08:32:07;;;;;;;0.68;0.50;;;31.80;1.00;;;;;;5050732;28;20025;-59
2022/08/06 08:34:33;;;;;;;1.45;0.47;;;31.50;1.00;;;;;;5068633;28;20028;-59
2022/08/06 08:36:59;;;;;;;0.45;0.22;;;31.10;1.00;;;;;;5051356;28;20120;-59
2022/08/06 08:39:24;;;;;;;0.63;0.30;;;30.50;1.00;;;;;;5068106;28;20062;-59
2022/08/06 08:42:10;;;;;;;0.57;0.35;;;29.80;1.00;;;;;;5051261;28;20033;-59
2022/08/06 08:44:36;;;;;;;0.25;0.17;;;28.90;1.00;;;;;;5068179;28;20036;-59
2022/08/06 08:47:03;;;;;;;2.17;0.38;;;28.70;1.00;;;;;;5051345;28;20123;-59
2022/08/06 08:49:46;;;;;;;0.80;0.30;;;28.60;1.00;;;;;;5068016;28;20062;-59
2022/08/06 08:52:19;;;;;;;0.25;0.20;;;28.30;1.00;;;;;;5030684;28;20033;-59
2022/08/06 08:54:51;;;;;;;1.40;0.30;;;28.50;1.00;;;;;;5068556;28;20036;-59
2022/08/06 08:57:18;;;;;;;1.38;0.30;;;28.70;1.00;;;;;;5049887;28;20033;-59
2022/08/06 08:59:44;;;;;;;1.67;0.30;;;29.00;1.00;;;;;;5067784;28;20032;-59
2022/08/06 09:02:13;;;;;;;0.25;0.10;;;28.70;1.00;;;;;;5050746;28;20043;-59
2022/08/06 09:04:39;;;;;;;0.68;0.40;;;28.90;1.00;;;;;;5068176;28;20508;-59
2022/08/06 09:07:07;;;;;;;1.27;0.32;;;29.20;1.00;;;;;;5050800;28;20025;-59
2022/08/06 09:09:34;;;;;;;0.82;0.30;;;29.00;1.00;;;;;;5067981;28;20020;-59
2022/08/06 09:12:00;;;;;;;0.77;0.30;;;28.90;1.00;;;;;;5050529;28;20021;-59
2022/08/06 09:14:26;;;;;;;0.20;0.17;;;28.40;1.00;;;;;;5061332;28;20044;-59
2022/08/06 09:16:51;;;;;;;1.75;0.32;;;27.90;1.00;;;;;;5070150;28;20028;-58
2022/08/06 09:19:18;;;;;;;1.45;0.65;;;27.50;1.00;;;;;;5054878;28;20028;-59
2022/08/06 09:21:44;;;;;;;0.38;0.15;;;27.40;1.00;;;;;;5070078;28;20074;-59
2022/08/06 09:24:10;;;;;;;1.92;0.40;;;27.40;1.00;;;;;;5053695;28;20020;-59
2022/08/06 09:26:35;;;;;;;0.55;0.35;;;27.50;1.00;;;;;;5070165;28;20518;-59
2022/08/06 09:29:01;;;;;;;0.40;0.30;;;27.60;1.00;;;;;;5052227;28;20071;-59
2022/08/06 09:31:26;;;;;;;0.60;0.20;;;27.70;1.00;;;;;;5070233;28;20530;-59
2022/08/06 09:34:01;;;;;;;3.30;0.40;;;27.60;1.00;;;;;;5050666;28;20084;-59
2022/08/06 09:36:27;;;;;;;0.30;0.20;;;27.50;1.00;;;;;;5070169;28;20082;-59
2022/08/06 09:38:54;;;;;;;0.43;0.30;;;27.50;1.00;;;;;;5050538;28;20044;-59
2022/08/06 09:41:22;;;;;;;0.65;0.40;;;27.40;1.00;;;;;;5069898;28;20431;-59
2022/08/06 09:43:50;;;;;;;0.45;0.20;;;27.40;1.00;;;;;;5049506;28;20405;-59
2022/08/06 09:46:17;;;;;;;0.75;0.40;;;27.40;1.00;;;;;;5069912;28;20044;-59
2022/08/06 09:49:00;;;;;;;0.20;0.20;;;27.20;1.00;;;;;;5048703;28;20397;-59
2022/08/06 09:51:26;;;;;;;0.85;0.40;;;27.30;1.00;;;;;;5070193;28;20036;-59
2022/08/06 09:53:57;;;;;;;1.15;0.30;;;27.30;1.00;;;;;;5049881;28;20033;-59
2022/08/06 09:56:23;;;;;;;0.28;0.17;;;27.20;1.00;;;;;;5068749;28;20032;-59
2022/08/06 09:58:49;;;;;;;1.35;0.30;;;27.10;1.00;;;;;;5049499;28;20067;-58
2022/08/06 10:01:18;;;;;;;1.00;0.13;;;26.70;1.00;;;;;;5069734;28;20025;-59
2022/08/06 10:03:44;;;;;;;0.20;0.20;;;27.00;1.00;;;;;;5047969;28;20029;-59
2022/08/06 10:06:12;;;;;;;0.30;0.30;;;27.20;1.00;;;;;;5069699;28;20455;-59
2022/08/06 10:08:38;;;;;;;0.50;0.38;;;27.40;1.00;;;;;;5049790;28;20094;-59
2022/08/06 10:11:04;;;;;;;0.63;0.30;;;27.50;1.00;;;;;;5051832;28;20024;-59
2022/08/06 10:13:30;;;;;;;0.50;0.30;;;27.50;1.00;;;;;;5062014;28;20036;-59
2022/08/06 10:16:01;;;;;;;0.20;0.20;;;27.40;1.00;;;;;;5051921;28;20059;-59
2022/08/06 10:18:47;;;;;;;0.20;0.20;;;27.40;1.00;;;;;;5033696;28;20034;-59
2022/08/06 10:21:22;;;;;;;0.40;0.20;;;27.30;1.00;;;;;;5033649;28;20033;-59
2022/08/06 10:23:51;;;;;;;2.63;0.30;;;27.20;1.00;;;;;;5032209;28;20037;-58
2022/08/06 10:26:24;;;;;;;0.98;0.30;;;27.10;1.00;;;;;;5073326;28;20021;-60
2022/08/06 10:28:51;;;;;;;0.63;0.20;;;26.90;1.00;;;;;;5032211;28;20029;-55
2022/08/06 10:31:17;;;;;;;0.20;0.20;;;26.90;1.00;;;;;;5073466;28;20024;-59
2022/08/06 10:33:46;;;;;;;0.75;0.20;;;26.90;1.00;;;;;;5053656;28;20036;-59
2022/08/06 10:36:14;;;;;;;1.55;0.20;;;26.90;1.00;;;;;;5071041;28;20493;-59
2022/08/06 10:38:47;;;;;;;0.40;0.25;;;26.90;1.00;;;;;;5053313;28;20041;-59
2022/08/06 10:41:13;;;;;;;0.55;0.40;;;27.00;1.00;;;;;;5051132;28;20086;-59
2022/08/06 10:43:40;;;;;;;1.23;0.25;;;26.90;1.00;;;;;;5072180;28;20033;-59
2022/08/06 10:46:08;;;;;;;1.15;0.32;;;26.80;1.00;;;;;;5051532;28;20041;-59
2022/08/06 10:48:35;;;;;;;1.20;0.40;;;26.80;1.00;;;;;;5072448;28;20412;-59
2022/08/06 10:51:03;;;;;;;1.48;0.30;;;26.80;1.00;;;;;;5051189;28;20040;-59
2022/08/06 10:53:31;;;;;;;0.32;0.22;;;26.70;1.00;;;;;;5072432;28;20032;-59
2022/08/06 10:55:59;;;;;;;1.33;0.32;;;26.30;1.00;;;;;;5051146;28;20033;-58
2022/08/06 10:58:25;;;;;;;0.35;0.20;;;26.00;1.00;;;;;;5072436;28;20033;-59
2022/08/06 11:00:51;;;;;;;0.52;0.08;;;25.90;1.00;;;;;;5051326;28;20036;-59
2022/08/06 11:03:31;;;;;;;1.08;0.20;;;25.90;1.00;;;;;;5071804;28;20033;-59
2022/08/06 11:06:11;;;;;;;0.77;0.20;;;25.90;1.00;;;;;;5047772;28;20035;-59
2022/08/06 11:08:49;;;;;;;0.13;0.13;;;25.80;1.00;;;;;;5032629;28;20413;-60
2022/08/06 11:11:33;;;;;;;2.15;0.30;;;25.90;1.00;;;;;;5050030;28;20029;-59
2022/08/06 11:14:09;;;;;;;0.50;0.10;;;25.90;1.00;;;;;;5044590;28;20032;-59
2022/08/06 11:16:36;;;;;;;0.35;0.10;;;25.90;1.00;;;;;;5072436;28;20031;-59
2022/08/06 11:19:09;;;;;;;1.52;0.30;;;25.90;1.00;;;;;;5051421;28;20025;-59
2022/08/06 11:21:37;;;;;;;0.85;0.20;;;25.80;1.00;;;;;;5071470;28;20042;-59
2022/08/06 11:24:04;;;;;;;0.70;0.22;;;25.70;1.00;;;;;;5051197;28;20021;-59
2022/08/06 11:26:39;;;;;;;1.35;0.25;;;25.60;1.00;;;;;;5072439;28;20264;-59
2022/08/06 11:29:10;;;;;;;1.27;0.40;;;25.50;1.00;;;;;;5031870;28;20494;-59
2022/08/06 11:31:37;;;;;;;0.20;0.20;;;25.70;1.00;;;;;;5072235;28;20098;-59
2022/08/06 11:34:10;;;;;;;0.55;0.25;;;26.00;1.00;;;;;;5050784;28;20564;-59
2022/08/06 11:36:45;;;;;;;0.30;0.20;;;26.30;1.00;;;;;;5072370;28;20040;-59
2022/08/06 11:39:10;;;;;;;0.50;0.20;;;26.50;1.00;;;;;;5051245;28;20484;-59
2022/08/06 11:41:51;;;;;;;0.20;0.20;;;26.60;1.00;;;;;;5072059;28;20090;-60
2022/08/06 11:44:21;;;;;;;2.22;0.30;;;26.60;1.00;;;;;;5033949;28;20042;-59
2022/08/06 11:46:48;;;;;;;2.10;0.28;;;26.50;1.00;;;;;;5071840;28;20039;-59
2022/08/06 11:49:22;;;;;;;0.95;0.30;;;26.40;1.00;;;;;;5051613;28;20107;-59
2022/08/06 11:51:57;;;;;;;0.88;0.20;;;26.30;1.00;;;;;;5072050;28;20078;-59
2022/08/06 11:54:32;;;;;;;0.55;0.10;;;26.40;1.00;;;;;;5035093;28;20135;-59
2022/08/06 11:57:06;;;;;;;0.20;0.20;;;26.30;1.00;;;;;;5071688;28;20024;-60
2022/08/06 11:59:36;;;;;;;0.63;0.10;;;26.30;1.00;;;;;;5037056;28;20035;-59
2022/08/06 12:02:07;;;;;;;0.98;0.20;;;26.20;1.00;;;;;;5070150;28;20025;-59
2022/08/06 12:04:36;;;;;;;0.25;0.10;;;26.40;1.00;;;;;;5037091;28;20033;-60
2022/08/06 12:07:23;;;;;;;0.43;0.20;;;26.50;1.00;;;;;;5071514;28;20109;-59
2022/08/06 12:10:09;;;;;;;1.17;0.50;;;26.60;1.00;;;;;;5052189;28;20029;-59
2022/08/06 12:12:46;;;;;;;0.88;0.20;;;26.60;1.00;;;;;;5070866;28;20029;-59
2022/08/06 12:15:11;;;;;;;0.10;0.10;;;26.40;1.00;;;;;;5040368;28;20516;-59
2022/08/06 12:17:38;;;;;;;0.40;0.10;;;25.70;1.00;;;;;;5051746;28;20033;-59
2022/08/06 12:20:04;;;;;;;0.68;0.30;;;25.70;1.00;;;;;;5068715;28;20025;-59
2022/08/06 12:22:32;;;;;;;0.75;0.20;;;25.90;1.00;;;;;;5070961;28;20297;-59
2022/08/06 12:24:58;;;;;;;0.50;0.17;;;26.10;1.00;;;;;;5055785;28;20040;-59
2022/08/06 12:27:31;;;;;;;0.50;0.20;;;26.20;1.00;;;;;;5071083;28;20025;-59
2022/08/06 12:29:58;;;;;;;0.30;0.30;;;26.30;1.00;;;;;;5041625;28;20028;-59
2022/08/06 12:32:27;;;;;;;0.43;0.17;;;26.30;1.00;;;;;;5070872;28;20107;-59
2022/08/06 12:34:54;;;;;;;0.38;0.25;;;26.10;1.00;;;;;;5054522;28;20111;-58
2022/08/06 12:37:20;;;;;;;1.00;0.20;;;25.80;1.00;;;;;;5070843;28;20040;-59
2022/08/06 12:42:31;;;;;;;3.47;0.20;;;25.20;1.00;;;;;;5070755;28;20082;-59
2022/08/06 12:44:57;;;;;;;0.20;0.13;;;24.90;1.00;;;;;;5055006;28;20040;-59
2022/08/06 12:47:25;;;;;;;1.92;0.73;;;24.90;1.00;;;;;;5070657;28;20389;-59
2022/08/06 12:49:54;;;;;;;0.63;0.20;;;24.90;1.00;;;;;;5050366;28;20115;-59
2022/08/06 12:52:21;;;;;;;0.55;0.20;;;24.90;1.00;;;;;;5051315;28;20052;-59
2022/08/06 12:54:48;;;;;;;1.08;0.20;;;24.90;1.00;;;;;;5068619;28;20411;-59
2022/08/06 12:57:24;;;;;;;0.15;0.10;;;24.90;1.00;;;;;;5071060;28;20021;-59
2022/08/06 12:59:50;;;;;;;2.03;0.10;;;24.80;1.00;;;;;;5038225;28;20536;-59
2022/08/06 13:02:19;;;;;;;2.05;0.20;;;24.70;1.00;;;;;;5069591;28;20334;-59
2022/08/06 13:04:49;;;;;;;0.20;0.20;;;24.40;1.00;;;;;;5053223;28;20020;-59
2022/08/06 13:07:15;;;;;;;0.55;0.10;;;24.00;1.00;;;;;;5071271;28;20074;-59
2022/08/06 13:09:43;;;;;;;1.33;0.30;;;23.90;1.00;;;;;;5052398;28;20035;-59
2022/08/06 13:12:13;;;;;;;0.40;0.22;;;23.60;1.00;;;;;;5071100;28;20025;-59